createdAt,value
2017-12-20T00:02:15.634Z,11.38
2017-12-20T00:04:43.627Z,10.95
2017-12-20T00:07:11.534Z,9.23
2017-12-20T00:09:39.537Z,10.02
2017-12-20T00:12:07.441Z,10.52
2017-12-20T00:14:35.417Z,11.25
2017-12-20T00:17:03.338Z,11.25
2017-12-20T00:19:31.299Z,10.73
2017-12-20T00:21:59.292Z,12.95
2017-12-20T00:24:28.036Z,10.80
2017-12-20T00:26:55.954Z,12.05
2017-12-20T00:29:24.708Z,11.98
2017-12-20T00:31:52.638Z,12.35
2017-12-20T00:34:20.609Z,11.18
2017-12-20T00:36:48.548Z,10.65
2017-12-20T00:39:17.264Z,11.27
2017-12-20T00:41:45.173Z,10.80
2017-12-20T00:44:13.135Z,11.45
2017-12-20T00:46:41.049Z,12.73
2017-12-20T00:49:09.773Z,11.55
2017-12-20T00:51:37.677Z,11.10
2017-12-20T00:54:05.605Z,10.80
2017-12-20T00:56:37.191Z,10.63
2017-12-20T00:59:05.101Z,10.43
2017-12-20T01:01:33.064Z,12.95
2017-12-20T01:04:00.991Z,12.00
2017-12-20T01:06:29.008Z,10.13
2017-12-20T01:08:56.973Z,10.10
2017-12-20T01:11:24.939Z,9.52
2017-12-20T01:13:52.832Z,9.68
2017-12-20T01:16:20.865Z,12.07
2017-12-20T01:18:48.797Z,12.90
2017-12-20T01:21:16.759Z,12.98
2017-12-20T01:23:44.685Z,11.57
2017-12-20T01:26:17.445Z,11.80
2017-12-20T01:28:45.365Z,9.40
2017-12-20T01:31:13.332Z,9.43
2017-12-20T01:33:42.000Z,11.00
2017-12-20T01:36:09.975Z,11.23
2017-12-20T01:38:38.664Z,9.60
2017-12-20T01:41:07.465Z,11.05
2017-12-20T01:43:35.392Z,11.18
2017-12-20T01:46:03.374Z,10.82
2017-12-20T01:48:31.312Z,10.93
2017-12-20T01:50:59.286Z,9.63
2017-12-20T01:53:27.204Z,8.85
2017-12-20T01:55:56.227Z,9.13
2017-12-20T01:58:24.223Z,10.15
2017-12-20T02:00:52.307Z,11.10
2017-12-20T02:03:20.229Z,9.32
2017-12-20T02:05:48.203Z,9.88
2017-12-20T02:08:16.134Z,10.43
2017-12-20T02:10:44.104Z,8.70
2017-12-20T02:13:12.029Z,10.48
2017-12-20T02:15:39.997Z,9.65
2017-12-20T02:18:11.848Z,8.60
2017-12-20T02:20:39.886Z,10.07
2017-12-20T02:23:08.639Z,9.23
2017-12-20T02:25:36.690Z,9.95
2017-12-20T02:28:04.679Z,10.70
2017-12-20T02:30:32.768Z,9.68
2017-12-20T02:33:00.750Z,8.27
2017-12-20T02:35:28.744Z,8.25
2017-12-20T02:37:56.724Z,7.22
2017-12-20T02:40:24.754Z,6.55
2017-12-20T02:42:52.725Z,8.82
2017-12-20T02:45:20.732Z,9.10
2017-12-20T02:47:48.736Z,8.73
2017-12-20T02:50:16.801Z,8.50
2017-12-20T02:52:44.797Z,7.32
2017-12-20T02:55:12.818Z,7.05
2017-12-20T02:57:40.777Z,8.50
2017-12-20T03:00:08.813Z,7.87
2017-12-20T03:02:36.766Z,7.15
2017-12-20T03:05:04.787Z,6.72
2017-12-20T03:07:32.738Z,7.28
2017-12-20T03:10:00.748Z,6.60
2017-12-20T03:12:28.743Z,7.65
2017-12-20T03:14:56.768Z,6.70
2017-12-20T03:17:28.345Z,6.75
2017-12-20T03:19:56.341Z,7.28
2017-12-20T03:22:24.310Z,6.70
2017-12-20T03:24:52.297Z,7.40
2017-12-20T03:27:20.216Z,7.68
2017-12-20T03:29:48.183Z,6.10
2017-12-20T03:32:16.093Z,7.55
2017-12-20T03:34:44.022Z,6.90
2017-12-20T03:37:11.999Z,7.20
2017-12-20T03:39:39.947Z,7.10
2017-12-20T03:42:07.950Z,7.68
2017-12-20T03:44:35.864Z,8.45
2017-12-20T03:47:12.585Z,9.93
2017-12-20T03:49:40.509Z,10.18
2017-12-20T03:52:08.521Z,10.80
2017-12-20T03:54:36.519Z,7.95
2017-12-20T03:57:04.507Z,7.25
2017-12-20T03:59:32.469Z,7.15
2017-12-20T04:02:00.432Z,6.75
2017-12-20T04:04:28.350Z,6.68
2017-12-20T04:06:56.327Z,10.38
2017-12-20T04:09:25.028Z,8.40
2017-12-20T04:11:53.020Z,8.05
2017-12-20T04:14:20.940Z,7.35
2017-12-20T04:16:48.897Z,6.95
2017-12-20T04:19:16.811Z,7.15
2017-12-20T04:21:44.783Z,6.62
2017-12-20T04:24:12.742Z,8.40
2017-12-20T04:26:41.489Z,6.78
2017-12-20T04:29:09.382Z,6.78
2017-12-20T04:31:37.333Z,6.68
2017-12-20T04:34:05.233Z,5.85
2017-12-20T04:36:33.173Z,6.05
2017-12-20T04:39:01.073Z,6.10
2017-12-20T04:41:29.024Z,6.70
2017-12-20T04:43:56.926Z,5.93
2017-12-20T04:46:25.141Z,6.03
2017-12-20T04:48:53.047Z,6.62
2017-12-20T04:51:21.003Z,5.87
2017-12-20T04:53:48.909Z,5.82
2017-12-20T04:56:16.863Z,5.68
2017-12-20T04:58:44.774Z,6.28
2017-12-20T05:01:12.745Z,5.97
2017-12-20T05:03:40.655Z,4.80
2017-12-20T05:06:09.423Z,4.45
2017-12-20T05:08:37.405Z,4.47
2017-12-20T05:11:05.378Z,4.07
2017-12-20T05:13:33.349Z,4.60
2017-12-20T05:16:01.393Z,3.95
2017-12-20T05:18:29.304Z,5.60
2017-12-20T05:20:58.723Z,4.57
2017-12-20T05:23:27.408Z,4.80
2017-12-20T05:26:01.543Z,5.72
2017-12-20T05:28:34.780Z,5.03
2017-12-20T05:31:06.356Z,7.57
2017-12-20T05:33:38.164Z,4.72
2017-12-20T05:36:06.378Z,4.70
2017-12-20T05:38:34.375Z,5.65
2017-12-20T05:41:02.374Z,5.00
2017-12-20T05:43:30.310Z,4.68
2017-12-20T05:46:04.349Z,4.40
2017-12-20T05:48:32.809Z,4.37
2017-12-20T05:51:00.817Z,3.22
2017-12-20T05:53:28.746Z,3.40
2017-12-20T05:55:56.720Z,3.60
2017-12-20T05:58:26.131Z,4.10
2017-12-20T06:00:55.186Z,4.75
2017-12-20T06:03:26.558Z,4.70
2017-12-20T06:05:54.784Z,4.60
2017-12-20T06:08:22.710Z,4.25
2017-12-20T06:10:51.460Z,4.00
2017-12-20T06:13:19.376Z,3.40
2017-12-20T06:15:47.383Z,4.60
2017-12-20T06:18:15.303Z,4.75
2017-12-20T06:20:43.446Z,5.37
2017-12-20T06:23:11.382Z,4.70
2017-12-20T06:25:39.312Z,4.45
2017-12-20T06:28:07.447Z,4.75
2017-12-20T06:30:35.377Z,4.95
2017-12-20T06:33:03.362Z,4.40
2017-12-20T06:35:31.328Z,3.80
2017-12-20T06:37:59.327Z,3.78
2017-12-20T06:40:27.273Z,5.10
2017-12-20T06:42:55.222Z,4.30
2017-12-20T06:45:23.908Z,4.00
2017-12-20T06:47:52.700Z,4.45
2017-12-20T06:50:20.634Z,4.30
2017-12-20T06:52:48.624Z,4.87
2017-12-20T06:55:16.538Z,4.82
2017-12-20T06:57:44.677Z,5.03
2017-12-20T07:00:12.581Z,5.37
2017-12-20T07:02:40.583Z,5.53
2017-12-20T07:05:08.515Z,5.82
2017-12-20T07:07:36.503Z,4.55
2017-12-20T07:10:04.424Z,4.40
2017-12-20T07:12:32.421Z,6.05
2017-12-20T07:15:00.334Z,5.10
2017-12-20T07:17:28.308Z,3.80
2017-12-20T07:19:56.250Z,3.80
2017-12-20T07:22:24.246Z,5.10
2017-12-20T07:24:52.162Z,4.78
2017-12-20T07:27:20.150Z,4.62
2017-12-20T07:29:48.100Z,4.90
2017-12-20T07:32:16.094Z,4.70
2017-12-20T07:34:44.025Z,4.32
2017-12-20T07:37:12.013Z,3.85
2017-12-20T07:39:39.954Z,3.62
2017-12-20T07:42:08.718Z,4.25
2017-12-20T07:44:36.664Z,3.92
2017-12-20T07:47:04.663Z,4.12
2017-12-20T07:49:32.616Z,5.25
2017-12-20T07:52:00.578Z,4.65
2017-12-20T07:54:29.367Z,4.10
2017-12-20T07:56:57.429Z,3.62
2017-12-20T07:59:25.398Z,4.10
2017-12-20T08:01:53.343Z,4.40
2017-12-20T08:04:21.379Z,3.65
2017-12-20T08:06:49.313Z,3.33
2017-12-20T08:09:17.344Z,3.72
2017-12-20T08:11:46.081Z,3.22
2017-12-20T08:14:14.090Z,3.05
2017-12-20T08:16:42.188Z,3.40
2017-12-20T08:19:10.303Z,3.42
2017-12-20T08:21:38.322Z,3.47
2017-12-20T08:24:06.362Z,3.15
2017-12-20T08:26:37.579Z,3.42
2017-12-20T08:29:05.619Z,3.97
2017-12-20T08:31:33.644Z,3.78
2017-12-20T08:34:01.638Z,3.65
2017-12-20T08:36:29.668Z,4.60
2017-12-20T08:38:57.648Z,3.03
2017-12-20T08:41:25.686Z,3.50
2017-12-20T08:43:53.654Z,4.05
2017-12-20T08:46:21.724Z,3.65
2017-12-20T08:48:49.693Z,3.72
2017-12-20T08:51:17.725Z,3.50
2017-12-20T08:53:45.678Z,3.83
2017-12-20T08:56:17.372Z,4.93
2017-12-20T08:58:45.362Z,5.32
2017-12-20T09:01:13.385Z,6.30
2017-12-20T09:03:42.140Z,6.20
2017-12-20T09:06:10.138Z,6.47
2017-12-20T09:08:38.076Z,6.65
2017-12-20T09:11:06.102Z,5.85
2017-12-20T09:13:34.044Z,5.55
2017-12-20T09:16:02.006Z,5.07
2017-12-20T09:18:30.027Z,3.50
2017-12-20T09:20:58.006Z,2.85
2017-12-20T09:23:26.773Z,3.35
2017-12-20T09:25:54.730Z,3.33
2017-12-20T09:28:22.749Z,4.15
2017-12-20T09:30:50.730Z,3.75
2017-12-20T09:33:18.788Z,3.25
2017-12-20T09:35:46.748Z,3.40
2017-12-20T09:38:15.537Z,3.40
2017-12-20T09:40:43.483Z,4.22
2017-12-20T09:43:11.496Z,3.62
2017-12-20T09:45:39.484Z,3.80
2017-12-20T09:48:08.736Z,3.85
2017-12-20T09:50:36.739Z,3.35
2017-12-20T09:53:04.814Z,3.90
2017-12-20T09:55:32.804Z,2.67
2017-12-20T09:58:02.656Z,3.08
2017-12-20T10:00:30.743Z,3.78
2017-12-20T10:02:58.807Z,3.67
2017-12-20T10:05:26.800Z,3.95
2017-12-20T10:07:54.788Z,3.37
2017-12-20T10:10:25.799Z,3.50
2017-12-20T10:12:57.649Z,3.28
2017-12-20T10:15:26.501Z,4.18
2017-12-20T10:17:58.445Z,3.90
2017-12-20T10:20:26.500Z,4.70
2017-12-20T10:22:54.535Z,3.60
2017-12-20T10:25:22.575Z,4.43
2017-12-20T10:27:50.751Z,4.95
2017-12-20T10:30:18.742Z,4.25
2017-12-20T10:32:46.826Z,3.90
2017-12-20T10:35:14.889Z,3.85
2017-12-20T10:37:42.956Z,4.40
2017-12-20T10:40:10.915Z,4.10
2017-12-20T10:42:38.905Z,4.37
2017-12-20T10:45:06.906Z,4.53
2017-12-20T10:47:39.089Z,4.00
2017-12-20T10:50:07.137Z,4.45
2017-12-20T10:52:35.133Z,5.10
2017-12-20T10:55:03.213Z,5.15
2017-12-20T10:57:31.213Z,5.70
2017-12-20T10:59:59.278Z,6.53
2017-12-20T11:02:27.263Z,6.28
2017-12-20T11:04:55.304Z,7.05
2017-12-20T11:07:23.535Z,5.57
2017-12-20T11:09:51.544Z,5.32
2017-12-20T11:12:19.540Z,6.80
2017-12-20T11:14:47.564Z,6.68
2017-12-20T11:17:15.699Z,8.32
2017-12-20T11:19:43.774Z,7.07
2017-12-20T11:22:11.776Z,6.80
2017-12-20T11:24:39.796Z,8.02
2017-12-20T11:27:07.782Z,8.13
2017-12-20T11:29:35.804Z,8.20
2017-12-20T11:32:03.825Z,8.70
2017-12-20T11:34:31.844Z,9.32
2017-12-20T11:37:00.630Z,8.35
2017-12-20T11:39:28.673Z,8.57
2017-12-20T11:41:56.654Z,9.20
2017-12-20T11:44:24.718Z,9.10
2017-12-20T11:46:53.769Z,9.25
2017-12-20T11:49:21.763Z,8.82
2017-12-20T11:51:49.811Z,11.35
2017-12-20T11:54:17.788Z,10.88
2017-12-20T11:56:46.073Z,9.80
2017-12-20T11:59:14.040Z,9.65
2017-12-20T12:01:42.173Z,9.85
2017-12-20T12:04:10.962Z,10.57
2017-12-20T12:06:39.034Z,11.12
2017-12-20T12:09:07.817Z,10.55
2017-12-20T12:11:35.870Z,10.35
2017-12-20T12:14:03.870Z,10.00
2017-12-20T12:16:33.132Z,9.35
2017-12-20T12:19:01.120Z,10.30
2017-12-20T12:21:29.208Z,9.38
2017-12-20T12:23:57.339Z,10.02
2017-12-20T12:26:25.603Z,10.13
2017-12-20T12:28:53.627Z,8.93
2017-12-20T12:31:21.741Z,9.57
2017-12-20T12:33:50.013Z,9.43
2017-12-20T12:36:18.110Z,8.48
2017-12-20T12:38:46.135Z,9.13
2017-12-20T12:41:14.963Z,9.88
2017-12-20T12:43:43.002Z,9.63
2017-12-20T12:46:11.901Z,10.27
2017-12-20T12:48:39.926Z,9.70
2017-12-20T12:51:08.007Z,9.65
2017-12-20T12:53:36.296Z,9.75
2017-12-20T12:56:04.458Z,11.05
2017-12-20T12:58:32.422Z,8.93
2017-12-20T13:01:00.392Z,10.07
2017-12-20T13:03:28.488Z,10.05
2017-12-20T13:05:57.250Z,9.90
2017-12-20T13:08:25.302Z,11.05
2017-12-20T13:10:53.345Z,10.55
2017-12-20T13:13:21.414Z,9.93
2017-12-20T13:15:49.561Z,10.40
2017-12-20T13:18:17.593Z,9.82
2017-12-20T13:20:45.571Z,9.88
2017-12-20T13:23:13.597Z,10.25
2017-12-20T13:25:42.339Z,21.65
2017-12-20T13:28:10.362Z,13.40
2017-12-20T13:30:39.257Z,11.12
2017-12-20T13:33:07.287Z,11.65
2017-12-20T13:35:35.922Z,12.07
2017-12-20T13:38:04.099Z,11.77
2017-12-20T13:40:32.038Z,12.30
2017-12-20T13:43:00.128Z,11.57
2017-12-20T13:45:29.102Z,13.13
2017-12-20T13:47:57.581Z,13.40
2017-12-20T13:50:28.593Z,11.50
2017-12-20T13:52:56.748Z,14.02
2017-12-20T13:55:24.795Z,12.68
2017-12-20T13:57:53.615Z,12.90
2017-12-20T14:00:21.632Z,13.85
2017-12-20T14:02:49.714Z,13.07
2017-12-20T14:05:17.742Z,15.05
2017-12-20T14:07:45.754Z,15.73
2017-12-20T14:10:13.735Z,14.48
2017-12-20T14:12:41.721Z,14.07
2017-12-20T14:15:09.751Z,12.75
2017-12-20T14:17:37.837Z,13.57
2017-12-20T14:20:05.851Z,14.90
2017-12-20T14:22:33.808Z,13.13
2017-12-20T14:25:01.810Z,15.75
2017-12-20T14:27:29.766Z,14.98
2017-12-20T14:29:57.769Z,16.92
2017-12-20T14:32:25.711Z,14.10
2017-12-20T14:34:53.745Z,14.82
2017-12-20T14:37:22.472Z,14.75
2017-12-20T14:39:50.500Z,14.75
2017-12-20T14:42:19.232Z,16.77
2017-12-20T14:44:47.246Z,16.52
2017-12-20T14:47:15.267Z,24.05
2017-12-20T14:49:43.280Z,18.37
2017-12-20T14:52:11.260Z,19.50
2017-12-20T14:54:39.333Z,15.70
2017-12-20T14:57:07.361Z,14.77
2017-12-20T14:59:35.452Z,16.52
2017-12-20T15:02:03.456Z,13.75
2017-12-20T15:04:31.461Z,13.80
2017-12-20T15:06:59.412Z,15.90
2017-12-20T15:09:28.211Z,13.62
2017-12-20T15:11:56.223Z,15.60
2017-12-20T15:14:24.221Z,16.90
2017-12-20T15:16:52.220Z,15.40
2017-12-20T15:19:20.251Z,16.98
2017-12-20T15:21:48.205Z,17.65
2017-12-20T15:24:16.242Z,18.17
2017-12-20T15:26:44.232Z,16.60
2017-12-20T15:29:12.255Z,16.10
2017-12-20T15:31:40.299Z,15.27
2017-12-20T15:34:08.359Z,15.13
2017-12-20T15:36:36.286Z,15.38
2017-12-20T15:39:04.384Z,16.70
2017-12-20T15:41:32.365Z,16.85
2017-12-20T15:44:00.448Z,15.43
2017-12-20T15:46:31.780Z,15.25
2017-12-20T15:48:59.780Z,14.32
2017-12-20T15:51:27.728Z,14.23
2017-12-20T15:53:55.730Z,15.05
2017-12-20T15:56:23.654Z,14.30
2017-12-20T15:58:51.656Z,14.93
2017-12-20T16:01:19.596Z,15.15
2017-12-20T16:03:47.583Z,16.05
2017-12-20T16:06:15.503Z,16.17
2017-12-20T16:08:43.488Z,16.20
2017-12-20T16:11:12.214Z,15.40
2017-12-20T16:13:40.254Z,17.15
2017-12-20T16:16:08.350Z,16.87
2017-12-20T16:18:36.377Z,17.95
2017-12-20T16:21:05.078Z,17.25
2017-12-20T16:23:33.828Z,17.05
2017-12-20T16:26:01.805Z,16.73
2017-12-20T16:28:29.827Z,15.30
2017-12-20T16:30:57.751Z,15.65
2017-12-20T16:33:25.733Z,17.62
2017-12-20T16:35:54.486Z,17.77
2017-12-20T16:38:22.511Z,18.65
2017-12-20T16:40:51.257Z,15.43
2017-12-20T16:43:19.354Z,15.35
2017-12-20T16:45:47.429Z,18.12
2017-12-20T16:48:15.432Z,19.10
2017-12-20T16:50:43.451Z,14.73
2017-12-20T16:53:11.448Z,18.00
2017-12-20T16:55:39.443Z,16.08
2017-12-20T16:58:07.412Z,16.37
2017-12-20T17:00:35.514Z,14.77
2017-12-20T17:03:03.523Z,17.73
2017-12-20T17:05:31.527Z,16.98
2017-12-20T17:08:03.114Z,14.70
2017-12-20T17:10:31.124Z,17.35
2017-12-20T17:12:59.184Z,17.87
2017-12-20T17:15:27.210Z,25.37
2017-12-20T17:17:55.391Z,20.05
2017-12-20T17:20:23.410Z,17.52
2017-12-20T17:22:52.111Z,18.45
2017-12-20T17:25:20.131Z,17.20
2017-12-20T17:27:48.676Z,18.85
2017-12-20T17:30:16.682Z,20.00
2017-12-20T17:32:44.626Z,17.33
2017-12-20T17:35:12.607Z,17.35
2017-12-20T17:37:40.788Z,17.17
2017-12-20T17:40:12.378Z,18.20
2017-12-20T17:42:40.536Z,14.70
2017-12-20T17:45:08.539Z,14.30
2017-12-20T17:47:36.476Z,16.37
2017-12-20T17:50:04.470Z,14.75
2017-12-20T17:52:32.407Z,16.73
2017-12-20T17:55:00.415Z,17.10
2017-12-20T17:57:28.381Z,15.15
2017-12-20T17:59:56.462Z,15.60
2017-12-20T18:02:24.772Z,16.45
2017-12-20T18:04:52.883Z,15.45
2017-12-20T18:07:20.923Z,16.92
2017-12-20T18:09:48.852Z,17.65
2017-12-20T18:12:17.027Z,16.17
2017-12-20T18:14:45.809Z,18.15
2017-12-20T18:17:13.765Z,13.70
2017-12-20T18:19:41.787Z,17.02
2017-12-20T18:22:10.487Z,16.70
2017-12-20T18:24:38.483Z,15.70
2017-12-20T18:27:06.496Z,16.05
2017-12-20T18:29:35.239Z,16.83
2017-12-20T18:32:03.186Z,16.35
2017-12-20T18:34:31.231Z,16.20
2017-12-20T18:37:03.385Z,16.75
2017-12-20T18:39:31.448Z,16.25
2017-12-20T18:41:59.424Z,13.75
2017-12-20T18:44:27.992Z,16.77
2017-12-20T18:46:55.910Z,15.75
2017-12-20T18:49:23.920Z,15.05
2017-12-20T18:51:52.024Z,13.88
2017-12-20T18:54:20.516Z,15.95
2017-12-20T18:56:49.283Z,16.70
2017-12-20T18:59:17.262Z,14.52
2017-12-20T19:01:45.299Z,17.12
2017-12-20T19:04:13.283Z,13.90
2017-12-20T19:06:43.287Z,14.90
2017-12-20T19:09:11.510Z,13.50
2017-12-20T19:11:40.248Z,15.52
2017-12-20T19:14:09.022Z,16.73
2017-12-20T19:16:36.990Z,15.15
2017-12-20T19:19:05.228Z,18.67
2017-12-20T19:21:33.401Z,14.95
2017-12-20T19:24:01.621Z,17.52
2017-12-20T19:26:29.651Z,15.45
2017-12-20T19:28:58.388Z,14.48
2017-12-20T19:31:26.453Z,17.27
2017-12-20T19:33:54.422Z,17.10
2017-12-20T19:36:24.527Z,17.77
2017-12-20T19:38:52.531Z,16.30
2017-12-20T19:41:20.549Z,15.50
2017-12-20T19:43:48.472Z,15.45
2017-12-20T19:46:16.526Z,16.62
2017-12-20T19:48:44.487Z,14.10
2017-12-20T19:51:12.573Z,16.65
2017-12-20T19:53:40.555Z,16.50
2017-12-20T19:56:08.563Z,15.85
2017-12-20T19:58:37.281Z,15.10
2017-12-20T20:01:05.253Z,15.88
2017-12-20T20:03:33.308Z,17.12
2017-12-20T20:06:01.348Z,18.20
2017-12-20T20:08:29.427Z,17.25
2017-12-20T20:10:57.440Z,22.73
2017-12-20T20:13:25.486Z,16.50
2017-12-20T20:15:53.480Z,16.08
2017-12-20T20:18:21.398Z,14.40
2017-12-20T20:20:49.451Z,17.12
2017-12-20T20:23:17.375Z,14.43
2017-12-20T20:25:45.702Z,14.63
2017-12-20T20:28:13.643Z,14.10
2017-12-20T20:30:42.426Z,16.33
2017-12-20T20:33:10.405Z,13.23
2017-12-20T20:35:38.392Z,14.98
2017-12-20T20:38:06.372Z,14.93
2017-12-20T20:40:34.345Z,15.30
2017-12-20T20:43:02.303Z,17.10
2017-12-20T20:45:30.296Z,13.93
2017-12-20T20:47:58.231Z,15.10
2017-12-20T20:50:26.214Z,14.25
2017-12-20T20:52:54.156Z,18.20
2017-12-20T20:55:22.150Z,21.87
2017-12-20T20:57:50.211Z,15.85
2017-12-20T21:00:18.244Z,15.40
2017-12-20T21:02:46.182Z,18.65
2017-12-20T21:05:14.177Z,18.48
2017-12-20T21:07:42.116Z,17.27
2017-12-20T21:10:10.094Z,17.55
2017-12-20T21:12:38.048Z,16.62
2017-12-20T21:15:06.025Z,16.85
2017-12-20T21:17:34.735Z,17.95
2017-12-20T21:20:02.741Z,18.05
2017-12-20T21:22:31.461Z,17.08
2017-12-20T21:24:59.438Z,14.52
2017-12-20T21:27:27.409Z,19.55
2017-12-20T21:29:55.374Z,17.98
2017-12-20T21:32:23.315Z,22.02
2017-12-20T21:34:51.313Z,18.10
2017-12-20T21:37:19.319Z,18.15
2017-12-20T21:39:47.308Z,16.90
2017-12-20T21:42:15.244Z,18.80
2017-12-20T21:44:43.232Z,17.20
2017-12-20T21:47:11.401Z,16.67
2017-12-20T21:49:39.378Z,16.58
2017-12-20T21:52:07.432Z,14.65
2017-12-20T21:54:35.392Z,13.13
2017-12-20T21:57:03.462Z,18.00
2017-12-20T21:59:31.466Z,17.80
2017-12-20T22:01:59.495Z,18.17
2017-12-20T22:04:27.463Z,18.70
2017-12-20T22:06:55.536Z,17.42
2017-12-20T22:09:23.465Z,15.90
2017-12-20T22:11:51.462Z,16.60
2017-12-20T22:14:20.189Z,14.55
2017-12-20T22:16:48.167Z,15.73
2017-12-20T22:19:16.340Z,13.73
2017-12-20T22:21:46.594Z,14.25
2017-12-20T22:24:16.308Z,14.65
2017-12-20T22:26:47.932Z,16.12
2017-12-20T22:29:16.672Z,16.00
2017-12-20T22:31:44.813Z,12.75
2017-12-20T22:34:12.712Z,15.98
2017-12-20T22:36:41.639Z,14.63
2017-12-20T22:39:10.434Z,16.40
2017-12-20T22:41:38.433Z,15.95
2017-12-20T22:44:06.398Z,14.87
2017-12-20T22:46:34.323Z,15.77
2017-12-20T22:49:04.340Z,21.12
2017-12-20T22:51:32.294Z,18.27
2017-12-20T22:54:00.424Z,15.82
2017-12-20T22:56:28.336Z,14.55
2017-12-20T22:58:57.091Z,14.43
2017-12-20T23:01:25.068Z,13.70
2017-12-20T23:03:53.036Z,14.60
2017-12-20T23:06:21.019Z,14.25
2017-12-20T23:08:49.278Z,15.50
2017-12-20T23:11:17.243Z,14.18
2017-12-20T23:13:45.290Z,16.33
2017-12-20T23:16:13.232Z,14.82
2017-12-20T23:18:41.234Z,16.05
2017-12-20T23:21:09.179Z,17.20
2017-12-20T23:23:37.497Z,18.02
2017-12-20T23:26:05.526Z,16.98
2017-12-20T23:28:33.530Z,19.45
2017-12-20T23:31:01.513Z,15.18
2017-12-20T23:33:29.518Z,14.35
2017-12-20T23:35:58.246Z,15.20
2017-12-20T23:38:27.510Z,16.17
2017-12-20T23:40:55.582Z,13.80
2017-12-20T23:43:24.529Z,15.57
2017-12-20T23:45:52.563Z,14.90
2017-12-20T23:48:20.548Z,12.77
2017-12-20T23:50:48.533Z,14.87
2017-12-20T23:53:16.505Z,15.93
2017-12-20T23:55:44.512Z,18.48
2017-12-20T23:58:12.457Z,12.77
